Fort George G Meade, Maryland
Current Conditions -  °F | °C
As of 2:27 PM on Monday 20 Oct 2014 (Local Time) from KFME Reporting Station
Clear Clear  
Wind Chill: 64°   Ceiling: Unl
Heat Index: 64°   Visibility: 10mi
Dew Point: 43°   Wind: 7mph
Humidity: 45%   Direction: 210°SSW
Pressure: 30"   Gusts: 20mph
Location:  39.11°N, 76.73°W
Report Text: KFME 201827Z AUTO 21006G17KT 10SM CLR 18/06 A3000 RMK AO1
Loading
Personal Weather Stations






























Interactive Weather Map
Tropical Storm Tracking
New forecast layout! Learn more

10-Day Weather Forecast

Advertisements
Track Severe Weather on mobile